Time;durP1;ratioP1;P1;durP2;ratioP2;P2;SDS_P1;SDS_P2;PMS_P1;PMS_P2;Temp;Humidity;BMP_temperature;BMP_pressure;BME280_temperature;BME280_humidity;BME280_pressure;Samples;Min_cycle;Max_cycle;Signal;HPM_P1;HPM_P2
2021/07/08 00:01:16;;;;;;;7.32;5.95;;;15.00;99.90;;;;;;6310220;22;20046;-84
2021/07/08 00:03:42;;;;;;;11.65;6.40;;;15.00;99.90;;;;;;6309033;22;20018;-83
2021/07/08 00:06:08;;;;;;;9.27;6.38;;;15.00;99.90;;;;;;6319634;22;20013;-84
2021/07/08 00:08:33;;;;;;;11.52;5.75;;;15.00;99.90;;;;;;6283715;22;20075;-83
2021/07/08 00:10:59;;;;;;;9.77;6.70;;;15.00;99.90;;;;;;6283799;22;20038;-83
2021/07/08 00:13:27;;;;;;;7.20;6.40;;;14.90;99.90;;;;;;6319689;22;20467;-83
2021/07/08 00:15:54;;;;;;;8.68;6.25;;;14.90;99.90;;;;;;6283609;22;20556;-83
2021/07/08 00:18:22;;;;;;;8.20;5.72;;;14.90;99.90;;;;;;6309640;22;20015;-82
2021/07/08 00:20:49;;;;;;;10.45;6.43;;;14.90;99.90;;;;;;6284332;22;20026;-82
2021/07/08 00:23:16;;;;;;;9.25;6.43;;;14.90;99.90;;;;;;6282421;22;20017;-83
2021/07/08 00:25:45;;;;;;;13.88;6.82;;;14.90;99.90;;;;;;6337350;22;20037;-83
2021/07/08 00:28:15;;;;;;;9.85;6.40;;;14.80;99.90;;;;;;6310003;22;20015;-83
2021/07/08 00:30:43;;;;;;;7.60;6.20;;;14.80;99.90;;;;;;6309670;22;20015;-83
2021/07/08 00:33:10;;;;;;;10.05;5.90;;;14.80;99.90;;;;;;6336877;22;20011;-82
2021/07/08 00:35:37;;;;;;;10.45;6.05;;;14.80;99.90;;;;;;6309848;22;20011;-82
2021/07/08 00:38:04;;;;;;;12.25;6.35;;;14.80;99.90;;;;;;6309145;22;20017;-83
2021/07/08 00:40:31;;;;;;;10.95;6.93;;;14.90;99.90;;;;;;6284968;22;20018;-83
2021/07/08 00:42:57;;;;;;;9.77;6.93;;;14.90;99.90;;;;;;6339636;22;20064;-83
2021/07/08 00:45:24;;;;;;;13.23;6.72;;;14.90;99.90;;;;;;6322358;22;20011;-83
2021/07/08 00:47:50;;;;;;;14.43;5.97;;;15.00;99.90;;;;;;6311787;22;20401;-83
2021/07/08 00:50:20;;;;;;;8.90;6.57;;;15.00;99.90;;;;;;6323262;22;20398;-82
2021/07/08 00:52:46;;;;;;;8.57;6.30;;;15.10;99.90;;;;;;6312521;22;20321;-83
2021/07/08 00:59:20;;;;;;;7.70;5.13;;;15.10;99.90;;;;;;6344082;22;20014;-82
2021/07/08 01:01:47;;;;;;;11.07;5.55;;;15.00;99.90;;;;;;6168816;23;20013;-82
2021/07/08 01:04:15;;;;;;;10.18;5.45;;;15.00;99.90;;;;;;6168084;23;20036;-83
2021/07/08 01:06:44;;;;;;;11.77;5.43;;;14.90;99.90;;;;;;6164224;23;20021;-83
2021/07/08 01:09:11;;;;;;;10.95;5.20;;;14.90;99.90;;;;;;6174266;23;20017;-83
2021/07/08 01:15:18;;;;;;;5.88;4.80;;;14.90;99.90;;;;;;6183845;23;20107;-83
2021/07/08 01:17:45;;;;;;;8.85;4.95;;;15.00;99.90;;;;;;6163746;23;20017;-84
2021/07/08 01:20:12;;;;;;;6.43;4.80;;;14.90;99.90;;;;;;6158400;23;20486;-83
2021/07/08 01:22:40;;;;;;;8.43;5.00;;;15.00;99.90;;;;;;6157937;23;20045;-83
2021/07/08 01:27:56;;;;;;;7.10;4.55;;;15.00;99.90;;;;;;6183116;23;20017;-83
2021/07/08 01:30:22;;;;;;;7.38;4.35;;;15.00;99.90;;;;;;6165944;23;20366;-83
2021/07/08 01:32:50;;;;;;;7.15;4.50;;;14.90;99.90;;;;;;6157886;23;20025;-83
2021/07/08 01:35:16;;;;;;;6.88;4.35;;;14.80;99.90;;;;;;6167978;23;20020;-83
2021/07/08 01:37:43;;;;;;;4.88;4.40;;;14.90;99.90;;;;;;6259407;22;20065;-83
2021/07/08 01:40:11;;;;;;;9.77;4.47;;;14.90;99.90;;;;;;6311354;22;20015;-83
2021/07/08 01:42:37;;;;;;;6.32;4.43;;;14.90;99.90;;;;;;6322147;22;20358;-83
2021/07/08 01:45:05;;;;;;;5.38;4.60;;;14.80;99.90;;;;;;6311558;22;20026;-83
2021/07/08 01:47:31;;;;;;;10.98;4.70;;;14.80;99.90;;;;;;6311501;22;20022;-83
2021/07/08 01:49:56;;;;;;;6.32;4.40;;;14.80;99.90;;;;;;6311292;22;20011;-83
2021/07/08 01:52:22;;;;;;;11.23;5.00;;;14.90;99.90;;;;;;6337530;22;20011;-83
2021/07/08 01:54:48;;;;;;;8.50;6.00;;;14.80;99.90;;;;;;6311188;22;20327;-83
2021/07/08 01:57:14;;;;;;;5.88;5.28;;;14.80;99.90;;;;;;6310596;22;20022;-83
2021/07/08 01:59:40;;;;;;;6.63;5.57;;;14.80;99.90;;;;;;6310513;22;20545;-83
2021/07/08 02:02:06;;;;;;;8.27;5.53;;;14.80;99.90;;;;;;6311231;22;20036;-83
2021/07/08 02:04:32;;;;;;;7.82;5.82;;;14.80;99.90;;;;;;6338368;22;20018;-83
2021/07/08 02:06:58;;;;;;;7.82;5.75;;;14.80;99.90;;;;;;6348881;22;20003;-83
2021/07/08 02:09:24;;;;;;;11.85;5.68;;;14.80;99.90;;;;;;6321145;22;20010;-83
2021/07/08 02:11:50;;;;;;;8.85;5.45;;;14.70;99.90;;;;;;6311041;22;20015;-83
2021/07/08 02:14:16;;;;;;;6.90;5.60;;;14.70;99.90;;;;;;6321564;22;20030;-83
2021/07/08 02:16:43;;;;;;;9.88;6.70;;;14.70;99.90;;;;;;6285406;22;20445;-83
2021/07/08 02:19:08;;;;;;;11.13;6.32;;;14.70;99.90;;;;;;6285245;22;20015;-83
2021/07/08 02:21:34;;;;;;;9.85;5.85;;;14.60;99.90;;;;;;6311572;22;20304;-83
2021/07/08 02:24:01;;;;;;;12.15;5.80;;;14.60;99.90;;;;;;6310055;22;20030;-84
2021/07/08 02:26:26;;;;;;;12.98;6.07;;;14.60;99.90;;;;;;6310264;22;20049;-83
2021/07/08 02:28:52;;;;;;;7.25;6.03;;;14.60;99.90;;;;;;6310185;22;20042;-83
2021/07/08 02:31:18;;;;;;;11.15;7.20;;;14.60;99.90;;;;;;6310186;22;20022;-84
2021/07/08 02:33:45;;;;;;;13.95;8.90;;;14.60;99.90;;;;;;6296058;22;20023;-84
2021/07/08 02:36:12;;;;;;;9.38;7.45;;;14.60;99.90;;;;;;6279763;22;20023;-83
2021/07/08 02:38:38;;;;;;;8.77;7.55;;;14.60;99.90;;;;;;6306321;22;20014;-83
2021/07/08 02:41:05;;;;;;;11.52;7.50;;;14.50;99.90;;;;;;6253862;22;20019;-83
2021/07/08 02:43:31;;;;;;;9.00;7.80;;;14.50;99.90;;;;;;6279415;22;20064;-84
2021/07/08 02:45:57;;;;;;;8.27;7.20;;;14.50;99.90;;;;;;6317286;22;20064;-84
2021/07/08 02:48:24;;;;;;;9.55;6.80;;;14.50;99.90;;;;;;6279481;22;20015;-83
2021/07/08 02:50:53;;;;;;;6.90;6.18;;;14.40;99.90;;;;;;6317066;22;20007;-83
2021/07/08 02:53:20;;;;;;;9.02;7.13;;;14.50;99.90;;;;;;6288794;22;20011;-83
2021/07/08 02:55:46;;;;;;;10.30;8.75;;;14.40;99.90;;;;;;6315575;22;20084;-84
2021/07/08 02:58:13;;;;;;;16.98;11.82;;;14.40;99.90;;;;;;6289179;22;20362;-83
2021/07/08 03:00:39;;;;;;;16.85;11.43;;;14.40;99.90;;;;;;6279248;22;20007;-83
2021/07/08 03:03:05;;;;;;;13.02;11.38;;;14.40;99.90;;;;;;6278958;22;20090;-83
2021/07/08 03:05:31;;;;;;;15.77;11.38;;;14.30;99.90;;;;;;6289150;22;20034;-84
2021/07/08 03:07:58;;;;;;;12.38;10.48;;;14.30;99.90;;;;;;6252914;22;20063;-83
2021/07/08 03:10:26;;;;;;;14.10;11.02;;;14.20;99.90;;;;;;6316678;22;20018;-83
2021/07/08 03:12:53;;;;;;;14.65;11.10;;;14.20;99.90;;;;;;6253534;22;20011;-83
2021/07/08 03:15:19;;;;;;;12.43;9.77;;;14.20;99.90;;;;;;6317091;22;20011;-83
2021/07/08 03:17:47;;;;;;;13.98;10.85;;;14.10;99.90;;;;;;6278661;22;20358;-83
2021/07/08 03:20:21;;;;;;;11.88;10.63;;;14.10;99.90;;;;;;6306841;22;20486;-82
2021/07/08 03:22:49;;;;;;;17.40;11.10;;;14.00;99.90;;;;;;6279053;22;20363;-83
2021/07/08 03:25:17;;;;;;;18.38;10.77;;;14.00;99.90;;;;;;6279696;22;20474;-83
2021/07/08 03:27:44;;;;;;;16.85;10.45;;;14.00;99.90;;;;;;6278466;22;20319;-84
2021/07/08 03:30:13;;;;;;;15.55;10.77;;;14.00;99.90;;;;;;6254085;22;20019;-83
2021/07/08 03:32:39;;;;;;;16.50;11.30;;;13.90;99.90;;;;;;6292385;22;20011;-83
2021/07/08 03:35:07;;;;;;;18.23;13.38;;;14.00;99.90;;;;;;6321399;22;20006;-83
2021/07/08 03:37:35;;;;;;;15.88;10.73;;;13.90;99.90;;;;;;6309539;22;20431;-83
2021/07/08 03:40:04;;;;;;;17.33;11.32;;;13.90;99.90;;;;;;6338481;22;20007;-83
2021/07/08 03:42:29;;;;;;;12.68;10.68;;;13.90;99.90;;;;;;6285205;22;20029;-83
2021/07/08 03:44:55;;;;;;;16.23;10.85;;;13.90;99.90;;;;;;6310769;22;20427;-83
2021/07/08 03:47:21;;;;;;;14.55;10.40;;;13.90;99.90;;;;;;6310601;22;20030;-83
2021/07/08 03:49:47;;;;;;;13.30;10.98;;;13.90;99.90;;;;;;6284812;22;20014;-84
2021/07/08 03:52:13;;;;;;;16.45;10.27;;;14.00;99.90;;;;;;6337425;22;20481;-83
2021/07/08 03:54:39;;;;;;;15.18;10.07;;;13.90;99.90;;;;;;6284043;22;20013;-84
2021/07/08 03:57:05;;;;;;;17.45;10.40;;;14.10;99.90;;;;;;6338306;22;20086;-83
2021/07/08 03:59:31;;;;;;;13.80;10.10;;;14.00;99.90;;;;;;6310271;22;20021;-83
2021/07/08 04:01:57;;;;;;;17.98;10.52;;;14.10;99.90;;;;;;6309940;22;20014;-83
2021/07/08 04:04:23;;;;;;;16.92;10.70;;;14.10;99.90;;;;;;6310148;22;20107;-83
2021/07/08 04:06:49;;;;;;;11.75;10.13;;;14.10;99.90;;;;;;6284669;22;20007;-83
2021/07/08 04:09:15;;;;;;;19.58;11.63;;;14.20;99.90;;;;;;6320612;22;20029;-83
2021/07/08 04:11:41;;;;;;;20.85;11.15;;;14.30;99.90;;;;;;6315771;22;20007;-84
2021/07/08 04:14:06;;;;;;;17.45;10.30;;;14.30;99.90;;;;;;6310567;22;20504;-83
2021/07/08 04:16:32;;;;;;;12.43;10.15;;;14.30;99.90;;;;;;6311132;22;20018;-83
2021/07/08 04:19:03;;;;;;;16.70;11.73;;;14.30;99.90;;;;;;6285643;22;20022;-83
2021/07/08 04:21:29;;;;;;;18.75;10.60;;;14.40;99.90;;;;;;6284439;22;20014;-83
2021/07/08 04:23:55;;;;;;;19.85;12.15;;;14.50;99.90;;;;;;6320862;22;20017;-83
2021/07/08 04:26:22;;;;;;;12.80;10.75;;;14.60;99.90;;;;;;6318219;22;20399;-83
2021/07/08 04:28:47;;;;;;;13.60;11.10;;;14.60;99.90;;;;;;6310583;22;20030;-83
2021/07/08 04:31:16;;;;;;;15.65;10.57;;;14.70;99.90;;;;;;6310596;22;20011;-83
2021/07/08 04:33:46;;;;;;;13.02;11.20;;;14.80;99.90;;;;;;6310811;22;20023;-83
2021/07/08 04:36:13;;;;;;;15.25;10.93;;;15.00;99.90;;;;;;6320878;22;20067;-83
2021/07/08 04:38:46;;;;;;;16.08;10.57;;;15.70;99.90;;;;;;6321548;22;20017;-83
2021/07/08 04:42:10;;;;;;;17.40;11.00;;;16.60;99.90;;;;;;6293746;22;20023;-84
2021/07/08 04:44:37;;;;;;;15.45;10.05;;;17.50;99.90;;;;;;6310600;22;20078;-83
2021/07/08 04:47:04;;;;;;;16.30;10.02;;;18.10;99.90;;;;;;6310922;22;20091;-83
2021/07/08 04:49:30;;;;;;;17.05;9.63;;;18.70;99.90;;;;;;6338983;22;20106;-85
2021/07/08 04:51:56;;;;;;;15.23;9.07;;;18.90;99.90;;;;;;6324689;22;20185;-85
2021/07/08 04:54:22;;;;;;;8.95;6.43;;;19.40;99.90;;;;;;6350530;22;20011;-85
2021/07/08 05:00:35;;;;;;;9.85;5.10;;;20.60;99.90;;;;;;6337731;22;20025;-83
2021/07/08 05:03:40;;;;;;;9.88;4.75;;;20.90;99.90;;;;;;6285270;22;20019;-83
2021/07/08 05:07:12;;;;;;;;;;;;;;;;;;;;;
2021/07/08 05:10:22;;;;;;;10.27;6.50;;;19.60;99.90;;;;;;6310055;22;20019;-84
2021/07/08 05:13:35;;;;;;;10.73;5.22;;;19.20;99.90;;;;;;6098875;23;20018;-85
2021/07/08 05:20:08;;;;;;;8.20;5.10;;;18.80;99.90;;;;;;6127436;23;20064;-86
2021/07/08 05:26:35;;;;;;;6.53;4.73;;;18.80;99.90;;;;;;5955582;24;20389;-84
2021/07/08 05:29:21;;;;;;;8.45;5.00;;;18.70;99.90;;;;;;5924420;24;20124;-81
2021/07/08 05:32:12;;;;;;;8.43;4.50;;;18.70;99.90;;;;;;5927297;24;20020;-84
2021/07/08 05:34:48;;;;;;;10.20;4.88;;;18.70;99.90;;;;;;5925261;24;20128;-81
2021/07/08 05:37:24;;;;;;;8.23;5.60;;;18.80;99.90;;;;;;5952142;24;20028;-80
2021/07/08 05:39:52;;;;;;;11.32;6.18;;;18.80;99.90;;;;;;5980472;24;20044;-79
2021/07/08 05:42:17;;;;;;;17.77;9.10;;;18.70;99.90;;;;;;5983991;24;20120;-81
2021/07/08 05:44:46;;;;;;;10.52;7.35;;;18.70;99.90;;;;;;5980879;24;20352;-81
2021/07/08 05:47:12;;;;;;;12.05;7.82;;;18.50;99.90;;;;;;5981274;24;20103;-81
2021/07/08 05:49:48;;;;;;;15.30;9.30;;;18.50;99.90;;;;;;6013162;23;20029;-83
2021/07/08 05:52:14;;;;;;;11.30;5.22;;;18.30;99.90;;;;;;6012733;23;20102;-82
2021/07/08 05:54:39;;;;;;;10.20;6.20;;;18.30;99.90;;;;;;6036974;23;20024;-82
2021/07/08 05:57:05;;;;;;;8.15;6.63;;;18.50;99.90;;;;;;6038185;23;20015;-80
2021/07/08 05:59:31;;;;;;;11.48;5.78;;;18.40;99.90;;;;;;6070728;23;20049;-79
2021/07/08 06:01:57;;;;;;;9.27;6.00;;;18.40;99.90;;;;;;6115725;23;20427;-79
2021/07/08 06:04:23;;;;;;;12.55;6.90;;;18.50;99.90;;;;;;6190713;23;20203;-79
2021/07/08 06:06:48;;;;;;;8.63;6.35;;;18.30;99.90;;;;;;6299315;22;20026;-80
2021/07/08 06:09:14;;;;;;;11.60;5.63;;;18.30;99.90;;;;;;6348454;22;20329;-81
2021/07/08 06:11:40;;;;;;;8.60;5.38;;;18.40;99.90;;;;;;6317029;22;20022;-80
2021/07/08 06:14:06;;;;;;;11.73;7.50;;;18.30;99.90;;;;;;6321103;22;20354;-81
2021/07/08 06:16:31;;;;;;;7.68;4.88;;;18.40;99.90;;;;;;6321194;22;20007;-83
2021/07/08 06:18:57;;;;;;;10.20;6.97;;;18.50;99.90;;;;;;6285168;22;20015;-80
2021/07/08 06:21:26;;;;;;;7.90;6.75;;;18.60;99.90;;;;;;6320991;22;20491;-81
2021/07/08 06:23:52;;;;;;;7.55;5.25;;;18.70;99.90;;;;;;6348203;22;20014;-82
2021/07/08 06:26:18;;;;;;;8.30;4.93;;;18.80;99.90;;;;;;6319623;22;20373;-82
2021/07/08 06:28:44;;;;;;;7.55;5.20;;;18.90;99.90;;;;;;6310566;22;20042;-81
2021/07/08 06:31:10;;;;;;;11.85;6.43;;;19.00;99.90;;;;;;6311838;22;20405;-82
2021/07/08 06:33:36;;;;;;;6.07;4.57;;;19.00;99.90;;;;;;6338142;22;20030;-82
2021/07/08 06:36:02;;;;;;;6.35;4.38;;;19.00;99.90;;;;;;6309545;22;20029;-82
2021/07/08 06:38:33;;;;;;;9.20;5.95;;;19.20;99.90;;;;;;6309502;22;20018;-82
2021/07/08 06:41:50;;;;;;;9.63;6.18;;;19.30;99.90;;;;;;6285066;22;20310;-83
2021/07/08 06:44:19;;;;;;;14.68;9.00;;;19.40;99.90;;;;;;6312734;22;20017;-80
2021/07/08 06:46:50;;;;;;;14.15;8.15;;;19.50;99.90;;;;;;6325836;22;20366;-80
2021/07/08 06:49:16;;;;;;;11.32;7.88;;;19.50;99.90;;;;;;6310053;22;20021;-79
2021/07/08 06:51:47;;;;;;;13.55;8.73;;;19.40;99.90;;;;;;6335918;22;20085;-81
2021/07/08 06:54:16;;;;;;;11.68;8.25;;;19.30;99.90;;;;;;6334222;22;20033;-81
2021/07/08 06:56:42;;;;;;;13.57;8.27;;;19.40;99.90;;;;;;6335167;22;20019;-80
2021/07/08 06:59:09;;;;;;;13.00;7.82;;;19.30;99.90;;;;;;6362242;22;20011;-82
2021/07/08 07:01:34;;;;;;;14.32;7.97;;;19.20;99.90;;;;;;6371850;22;20419;-84
2021/07/08 07:04:00;;;;;;;14.45;7.70;;;19.20;99.90;;;;;;6325096;22;20102;-87
2021/07/08 07:06:26;;;;;;;13.05;7.15;;;19.30;99.90;;;;;;6310384;22;20042;-87
2021/07/08 07:08:52;;;;;;;15.13;7.35;;;19.10;99.90;;;;;;6283229;22;20145;-82
2021/07/08 07:11:17;;;;;;;11.88;6.72;;;19.10;99.90;;;;;;6311173;22;20224;-82
2021/07/08 07:13:43;;;;;;;10.75;6.63;;;19.20;99.90;;;;;;6284107;22;20113;-83
2021/07/08 07:16:09;;;;;;;12.48;6.63;;;19.20;99.90;;;;;;6284401;22;20034;-84
2021/07/08 07:18:39;;;;;;;15.73;7.68;;;19.20;99.90;;;;;;6309465;22;20010;-83
2021/07/08 07:21:08;;;;;;;12.50;6.82;;;19.30;99.90;;;;;;6284107;22;20011;-82
2021/07/08 07:23:34;;;;;;;10.50;7.45;;;19.30;99.90;;;;;;6347956;22;20029;-83
2021/07/08 07:25:59;;;;;;;15.32;6.97;;;19.30;99.90;;;;;;6348386;22;20007;-83
2021/07/08 07:28:25;;;;;;;12.15;7.07;;;19.40;99.90;;;;;;6337869;22;20014;-83
2021/07/08 07:30:51;;;;;;;13.27;6.65;;;19.40;99.90;;;;;;6284776;22;20023;-83
2021/07/08 07:33:17;;;;;;;16.35;6.60;;;19.40;99.90;;;;;;6343672;22;20300;-84
2021/07/08 07:35:43;;;;;;;14.95;7.30;;;19.60;99.90;;;;;;6284226;22;20450;-84
2021/07/08 07:38:11;;;;;;;13.95;7.53;;;19.70;99.90;;;;;;6283755;22;20080;-84
2021/07/08 07:40:42;;;;;;;14.20;7.20;;;19.70;99.90;;;;;;6310849;22;20007;-84
2021/07/08 07:43:09;;;;;;;16.38;7.28;;;19.80;99.90;;;;;;6337993;22;20093;-83
2021/07/08 07:45:35;;;;;;;13.60;7.07;;;19.80;99.90;;;;;;6348367;22;20033;-83
2021/07/08 07:48:01;;;;;;;13.68;7.38;;;19.90;99.90;;;;;;6348704;22;20451;-83
2021/07/08 07:50:31;;;;;;;17.25;7.72;;;19.90;99.90;;;;;;6348809;22;20010;-83
2021/07/08 07:52:57;;;;;;;14.23;7.97;;;20.00;99.90;;;;;;6309599;22;20018;-84
2021/07/08 07:55:27;;;;;;;14.38;7.70;;;20.00;99.90;;;;;;6310783;22;20015;-84
2021/07/08 07:57:55;;;;;;;14.80;7.85;;;20.10;99.90;;;;;;6314015;22;20477;-79
2021/07/08 08:00:21;;;;;;;12.68;7.25;;;20.20;99.90;;;;;;6308815;22;20057;-81
2021/07/08 08:02:46;;;;;;;12.05;7.72;;;20.30;99.90;;;;;;6283471;22;20015;-82
2021/07/08 08:10:26;;;;;;;13.97;6.33;;;21.10;99.90;;;;;;6309362;22;20036;-83
2021/07/08 08:12:52;;;;;;;14.68;6.22;;;21.30;99.90;;;;;;6283549;22;20010;-82
2021/07/08 08:15:18;;;;;;;9.02;5.22;;;21.50;99.90;;;;;;6309469;22;20316;-83
2021/07/08 08:17:47;;;;;;;12.05;7.20;;;21.60;99.90;;;;;;6310844;22;20450;-83
2021/07/08 08:20:15;;;;;;;8.38;4.55;;;21.70;99.90;;;;;;6350136;22;20052;-83
2021/07/08 08:22:42;;;;;;;13.98;6.32;;;21.90;99.90;;;;;;6322113;22;20468;-82
2021/07/08 08:25:10;;;;;;;16.45;6.88;;;22.10;99.90;;;;;;6285694;22;20007;-83
2021/07/08 08:27:37;;;;;;;14.93;6.00;;;22.10;99.90;;;;;;6337263;22;20014;-83
2021/07/08 08:30:05;;;;;;;10.23;6.15;;;22.10;99.90;;;;;;6309157;22;20093;-83
2021/07/08 08:32:31;;;;;;;14.50;5.93;;;22.30;99.90;;;;;;6283824;22;20007;-83
2021/07/08 08:34:57;;;;;;;15.40;6.03;;;22.20;99.90;;;;;;6320299;22;20003;-82
2021/07/08 08:37:22;;;;;;;20.08;5.93;;;22.20;99.90;;;;;;6309188;22;20506;-84
2021/07/08 08:39:48;;;;;;;11.07;5.40;;;22.10;99.90;;;;;;6348098;22;20369;-82
2021/07/08 08:42:15;;;;;;;10.15;4.55;;;21.90;99.90;;;;;;6337400;22;20038;-84
2021/07/08 08:44:44;;;;;;;9.95;4.88;;;21.70;99.90;;;;;;6309542;22;20033;-82
2021/07/08 08:47:13;;;;;;;9.43;5.13;;;21.80;99.90;;;;;;6309628;22;20011;-84
2021/07/08 08:49:40;;;;;;;12.32;5.50;;;21.90;99.90;;;;;;6337764;22;20041;-82
2021/07/08 08:52:08;;;;;;;15.80;5.65;;;22.00;99.90;;;;;;6282311;22;20085;-81
2021/07/08 08:54:35;;;;;;;14.98;5.20;;;22.00;99.90;;;;;;6348064;22;20057;-83
2021/07/08 08:57:02;;;;;;;11.85;4.85;;;22.40;99.90;;;;;;6309359;22;20067;-81
2021/07/08 08:59:28;;;;;;;8.30;4.93;;;22.80;99.90;;;;;;6320153;22;20414;-83
2021/07/08 09:02:13;;;;;;;10.48;4.72;;;22.80;99.90;;;;;;6310670;22;20445;-80
2021/07/08 09:04:42;;;;;;;12.70;5.28;;;22.90;99.90;;;;;;6286003;22;20041;-82
2021/07/08 09:07:31;;;;;;;10.93;5.43;;;22.90;99.90;;;;;;6311203;22;20431;-82
2021/07/08 09:10:09;;;;;;;9.77;5.40;;;22.90;99.90;;;;;;6350799;22;20121;-83
2021/07/08 09:12:35;;;;;;;11.10;4.90;;;22.90;99.90;;;;;;6285477;22;20038;-81
2021/07/08 09:15:20;;;;;;;8.38;4.22;;;23.00;99.90;;;;;;6350422;22;20388;-84
2021/07/08 09:17:48;;;;;;;8.73;4.65;;;23.10;99.90;;;;;;6338779;22;20313;-83
2021/07/08 09:20:16;;;;;;;8.38;4.75;;;23.10;99.90;;;;;;6310899;22;20357;-82
2021/07/08 09:22:45;;;;;;;8.95;4.40;;;23.30;99.90;;;;;;6338458;22;20080;-85
2021/07/08 09:25:20;;;;;;;9.75;3.97;;;23.40;99.90;;;;;;6286208;22;20011;-81
2021/07/08 09:27:48;;;;;;;10.80;4.70;;;23.50;99.90;;;;;;6309182;22;20014;-84
2021/07/08 09:30:28;;;;;;;8.98;4.40;;;23.40;99.90;;;;;;6310268;22;20015;-80
2021/07/08 09:32:57;;;;;;;9.20;4.28;;;23.60;99.90;;;;;;6307852;22;20463;-84
2021/07/08 09:35:38;;;;;;;8.60;4.57;;;23.60;99.90;;;;;;6349169;22;20427;-83
2021/07/08 09:38:23;;;;;;;10.60;4.38;;;23.50;99.90;;;;;;6348162;22;20422;-82
2021/07/08 09:41:11;;;;;;;11.77;4.40;;;23.50;99.90;;;;;;6310572;22;20164;-80
2021/07/08 09:44:34;;;;;;;12.75;4.30;;;23.60;99.90;;;;;;6311007;22;20018;-80
2021/07/08 09:47:01;;;;;;;10.18;3.25;;;23.90;99.90;;;;;;6158565;23;20047;-82
2021/07/08 09:49:28;;;;;;;10.75;3.60;;;24.10;99.90;;;;;;6160498;23;20016;-80
2021/07/08 09:51:55;;;;;;;9.02;4.47;;;24.50;99.90;;;;;;6157969;23;20449;-81
2021/07/08 09:54:43;;;;;;;14.93;4.43;;;24.70;99.90;;;;;;6192251;23;20445;-84
2021/07/08 09:57:29;;;;;;;9.43;4.68;;;24.40;99.90;;;;;;6156747;23;20095;-81
2021/07/08 09:59:55;;;;;;;9.73;4.50;;;24.40;99.90;;;;;;6157164;23;20154;-79
2021/07/08 10:02:33;;;;;;;14.88;5.07;;;24.60;99.90;;;;;;6182291;23;20132;-82
2021/07/08 10:05:03;;;;;;;11.85;4.82;;;24.50;99.90;;;;;;6155850;23;20025;-82
2021/07/08 10:07:29;;;;;;;11.40;4.50;;;24.20;99.90;;;;;;6181751;23;20024;-82
2021/07/08 10:09:55;;;;;;;11.05;4.43;;;24.40;99.90;;;;;;6192433;23;20040;-79
2021/07/08 10:12:21;;;;;;;11.45;4.75;;;24.40;99.90;;;;;;6179149;23;20068;-79
2021/07/08 10:14:47;;;;;;;10.77;4.55;;;24.40;99.90;;;;;;6156644;23;20040;-80
2021/07/08 10:17:19;;;;;;;7.88;3.90;;;24.60;99.90;;;;;;6226533;22;20021;-79
2021/07/08 10:19:46;;;;;;;7.85;4.00;;;24.60;99.90;;;;;;6310017;22;20462;-83
2021/07/08 10:22:12;;;;;;;9.95;3.65;;;24.70;99.90;;;;;;6348011;22;20011;-79
2021/07/08 10:24:38;;;;;;;10.02;3.83;;;24.80;99.90;;;;;;6360160;22;20018;-77
2021/07/08 10:27:06;;;;;;;8.15;3.25;;;24.50;99.90;;;;;;6366550;22;20022;-78
2021/07/08 10:29:36;;;;;;;5.43;2.88;;;24.70;99.90;;;;;;6318335;22;20072;-81
2021/07/08 10:32:02;;;;;;;9.32;3.70;;;24.90;99.90;;;;;;6317401;22;20018;-79
2021/07/08 10:34:27;;;;;;;9.27;3.80;;;24.90;99.90;;;;;;6319610;22;20057;-83
2021/07/08 10:36:54;;;;;;;9.00;4.07;;;25.30;99.90;;;;;;6364403;22;20006;-79
2021/07/08 10:39:22;;;;;;;12.70;4.25;;;25.30;99.90;;;;;;6327822;22;20014;-78
2021/07/08 10:41:49;;;;;;;10.88;4.35;;;25.40;99.90;;;;;;6312022;22;20034;-82
2021/07/08 10:44:33;;;;;;;10.38;4.45;;;25.30;99.90;;;;;;6309173;22;20011;-82
2021/07/08 10:47:00;;;;;;;12.07;5.00;;;25.30;99.90;;;;;;6347416;22;20415;-79
2021/07/08 10:49:39;;;;;;;12.80;4.05;;;25.20;99.90;;;;;;6282564;22;20264;-79
2021/07/08 10:52:11;;;;;;;10.55;4.22;;;25.20;99.90;;;;;;6309503;22;20019;-78
2021/07/08 10:54:45;;;;;;;12.38;4.35;;;25.00;99.90;;;;;;6337650;22;20011;-81
2021/07/08 10:57:35;;;;;;;8.50;4.40;;;24.90;99.90;;;;;;6336946;22;20006;-79
2021/07/08 11:00:02;;;;;;;6.93;2.90;;;24.90;99.90;;;;;;6309685;22;20010;-82
2021/07/08 11:02:47;;;;;;;7.97;3.13;;;25.00;99.90;;;;;;6309804;22;20093;-84
2021/07/08 11:05:14;;;;;;;7.32;2.97;;;24.60;99.90;;;;;;6338626;22;20343;-79
2021/07/08 11:07:47;;;;;;;7.20;2.58;;;24.40;99.90;;;;;;6348086;22;20037;-82
2021/07/08 11:10:13;;;;;;;8.35;2.78;;;24.20;99.90;;;;;;6284252;22;20011;-80
2021/07/08 11:12:43;;;;;;;6.25;2.67;;;24.20;99.90;;;;;;6310002;22;20056;-82
2021/07/08 11:15:09;;;;;;;7.40;2.75;;;24.20;99.90;;;;;;6338619;22;20030;-83
2021/07/08 11:17:45;;;;;;;7.70;2.92;;;24.40;99.90;;;;;;6347426;22;20010;-83
2021/07/08 11:20:31;;;;;;;8.32;2.70;;;24.60;99.90;;;;;;6309395;22;20033;-84
2021/07/08 11:23:26;;;;;;;6.53;2.80;;;24.70;99.90;;;;;;6309074;22;20312;-83
2021/07/08 11:25:51;;;;;;;8.70;2.97;;;25.40;99.90;;;;;;6309166;22;20025;-81
2021/07/08 11:28:34;;;;;;;7.22;2.67;;;26.10;99.90;;;;;;6342655;22;20090;-82
2021/07/08 11:31:05;;;;;;;8.95;3.22;;;26.50;99.90;;;;;;6309837;22;20011;-84
2021/07/08 11:33:37;;;;;;;8.57;3.33;;;26.90;99.90;;;;;;6337027;22;20057;-81
2021/07/08 11:36:21;;;;;;;10.30;4.43;;;26.80;99.90;;;;;;6347595;22;20022;-78
2021/07/08 11:38:49;;;;;;;8.82;4.43;;;26.50;99.90;;;;;;6308155;22;20026;-81
2021/07/08 11:41:15;;;;;;;9.43;4.40;;;26.30;99.90;;;;;;6337779;22;20007;-84
2021/07/08 11:43:51;;;;;;;9.27;4.45;;;25.80;99.90;;;;;;6309595;22;20453;-84
2021/07/08 11:46:17;;;;;;;8.38;4.18;;;25.40;99.90;;;;;;6310437;22;20010;-80
2021/07/08 11:48:45;;;;;;;9.23;4.15;;;25.20;99.90;;;;;;6309625;22;20202;-84
2021/07/08 11:51:13;;;;;;;11.23;3.65;;;24.80;99.90;;;;;;6337788;22;20072;-80
2021/07/08 11:53:39;;;;;;;6.32;3.35;;;24.70;99.90;;;;;;6308853;22;20160;-82
2021/07/08 11:56:05;;;;;;;7.07;2.97;;;24.60;99.90;;;;;;6309930;22;20065;-82
2021/07/08 11:58:34;;;;;;;8.52;3.10;;;24.90;99.90;;;;;;6342164;22;20015;-81
2021/07/08 12:01:12;;;;;;;6.47;3.03;;;25.60;99.90;;;;;;6337791;22;20011;-80
2021/07/08 12:03:44;;;;;;;7.00;2.30;;;25.30;99.90;;;;;;6343545;22;20015;-81
2021/07/08 12:06:16;;;;;;;7.90;2.75;;;25.30;99.90;;;;;;6309132;22;20465;-80
2021/07/08 12:08:46;;;;;;;5.43;2.85;;;26.00;99.90;;;;;;6308436;22;20022;-82
2021/07/08 12:11:13;;;;;;;5.55;2.60;;;26.10;99.90;;;;;;6310156;22;20025;-82
2021/07/08 12:14:14;;;;;;;11.45;2.65;;;26.50;99.90;;;;;;6310253;22;20334;-84
2021/07/08 12:16:44;;;;;;;6.30;2.80;;;26.70;98.40;;;;;;6309978;22;20355;-84
2021/07/08 12:19:22;;;;;;;5.55;2.58;;;26.70;99.00;;;;;;6337509;22;20011;-83
2021/07/08 12:21:51;;;;;;;7.65;2.67;;;27.10;98.70;;;;;;6283229;22;20011;-84
2021/07/08 12:24:22;;;;;;;7.55;2.70;;;27.00;98.40;;;;;;6309840;22;20331;-84
2021/07/08 12:26:48;;;;;;;4.72;2.40;;;26.90;97.50;;;;;;6309695;22;20409;-82
2021/07/08 12:29:31;;;;;;;5.78;2.20;;;27.00;97.90;;;;;;6309673;22;20042;-84
2021/07/08 12:32:00;;;;;;;5.68;2.30;;;27.00;97.70;;;;;;6320886;22;20046;-86
2021/07/08 12:34:45;;;;;;;6.57;2.08;;;26.80;97.80;;;;;;6313559;22;20038;-83
2021/07/08 12:37:23;;;;;;;6.05;2.45;;;26.50;97.50;;;;;;6285245;22;20011;-82
2021/07/08 12:39:56;;;;;;;4.93;2.45;;;26.40;97.50;;;;;;6311790;22;20015;-82
2021/07/08 12:42:32;;;;;;;4.43;2.50;;;26.20;97.20;;;;;;6339607;22;20025;-85
2021/07/08 12:45:00;;;;;;;4.07;2.15;;;26.10;97.60;;;;;;6311045;22;20011;-85
2021/07/08 12:47:26;;;;;;;7.63;2.38;;;25.80;98.10;;;;;;6311071;22;20035;-85
2021/07/08 12:49:53;;;;;;;7.70;2.40;;;25.80;98.40;;;;;;6285941;22;20014;-84
2021/07/08 12:52:22;;;;;;;11.15;2.60;;;25.70;98.50;;;;;;6284179;22;20019;-82
2021/07/08 12:54:49;;;;;;;3.92;2.20;;;25.50;98.10;;;;;;6310857;22;20010;-83
2021/07/08 12:57:19;;;;;;;8.52;2.55;;;25.50;98.50;;;;;;6310987;22;20042;-80
2021/07/08 12:59:59;;;;;;;8.48;2.35;;;26.10;99.20;;;;;;6322108;22;20046;-83
2021/07/08 13:02:30;;;;;;;7.35;2.50;;;26.00;97.30;;;;;;6285941;22;20022;-84
2021/07/08 13:05:09;;;;;;;2.92;1.90;;;26.00;97.10;;;;;;6312090;22;20003;-83
2021/07/08 13:07:37;;;;;;;2.75;1.90;;;26.20;98.00;;;;;;6310795;22;20019;-82
2021/07/08 13:10:08;;;;;;;3.55;2.00;;;26.40;97.10;;;;;;6311783;22;20018;-83
2021/07/08 13:12:35;;;;;;;4.68;2.08;;;26.30;97.30;;;;;;6338924;22;20003;-84
2021/07/08 13:15:02;;;;;;;5.50;2.10;;;26.90;97.40;;;;;;6322257;22;20049;-84
2021/07/08 13:17:30;;;;;;;2.70;1.85;;;27.00;97.10;;;;;;6349852;22;20007;-82
2021/07/08 13:20:10;;;;;;;4.03;2.10;;;26.80;96.20;;;;;;6312210;22;20007;-86
2021/07/08 13:22:44;;;;;;;6.05;2.05;;;27.00;96.00;;;;;;6284889;22;20011;-83